aviador You're here:

KTDR Decoded Metar

in
Report Time2017-05-25 00:56:00
UTC Time2017-05-25 01:16:17
Flight Rules vfr VFR
Wind300° at 08 Gusting to 22 kt
W.Rank300° ranks 35
Current wind is above 300° avg. (5.1)
Visibility9999 m
Phenomena:N/A
Clouds:N/A
Expected CloudBase > 4,000 ft AGL from Temp-Dew spread
CeilingNone
Temp23°C
Dew Point13°C (53% RH)
AAT21.0°C
QNH1003 hPa
Raw Report
KTDR 250056Z AUTO 30008G22KT 10SM CLR 23/13 A2962 RMK AO2 SLP034
T02340133 $=

Extra information for KTDR:More info

Social comments